sensor_id;sensor_type;location;lat;lon;timestamp;temperature;humidity
65072;DHT22;51663;52.310;17.016;2024-03-08T00:01:27;24.80;24.10
65072;DHT22;51663;52.310;17.016;2024-03-08T00:04:29;24.70;24.30
65072;DHT22;51663;52.310;17.016;2024-03-08T00:07:33;24.60;24.40
65072;DHT22;51663;52.310;17.016;2024-03-08T00:10:35;24.80;24.60
65072;DHT22;51663;52.310;17.016;2024-03-08T00:13:37;25.00;23.90
65072;DHT22;51663;52.310;17.016;2024-03-08T00:16:39;25.10;23.70
65072;DHT22;51663;52.310;17.016;2024-03-08T00:19:45;25.10;23.70
65072;DHT22;51663;52.310;17.016;2024-03-08T00:22:47;25.20;23.50
65072;DHT22;51663;52.310;17.016;2024-03-08T00:25:50;25.10;23.50
65072;DHT22;51663;52.310;17.016;2024-03-08T00:28:52;25.10;23.50
65072;DHT22;51663;52.310;17.016;2024-03-08T00:31:56;25.10;23.60
65072;DHT22;51663;52.310;17.016;2024-03-08T00:34:59;25.10;23.60
65072;DHT22;51663;52.310;17.016;2024-03-08T00:38:02;25.10;23.50
65072;DHT22;51663;52.310;17.016;2024-03-08T00:41:04;25.20;23.30
65072;DHT22;51663;52.310;17.016;2024-03-08T00:44:06;25.20;23.40
65072;DHT22;51663;52.310;17.016;2024-03-08T00:47:09;25.20;23.30
65072;DHT22;51663;52.310;17.016;2024-03-08T00:50:11;25.20;23.30
65072;DHT22;51663;52.310;17.016;2024-03-08T00:53:15;25.10;23.20
65072;DHT22;51663;52.310;17.016;2024-03-08T00:56:17;25.00;23.20
65072;DHT22;51663;52.310;17.016;2024-03-08T00:59:20;24.80;23.50
65072;DHT22;51663;52.310;17.016;2024-03-08T01:02:22;24.90;23.70
65072;DHT22;51663;52.310;17.016;2024-03-08T01:05:25;24.80;23.70
65072;DHT22;51663;52.310;17.016;2024-03-08T01:08:28;24.80;23.90
65072;DHT22;51663;52.310;17.016;2024-03-08T01:11:30;24.80;24.10
65072;DHT22;51663;52.310;17.016;2024-03-08T01:14:33;24.70;24.20
65072;DHT22;51663;52.310;17.016;2024-03-08T01:17:36;24.60;24.20
65072;DHT22;51663;52.310;17.016;2024-03-08T01:20:38;24.30;24.30
65072;DHT22;51663;52.310;17.016;2024-03-08T01:23:43;24.30;24.70
65072;DHT22;51663;52.310;17.016;2024-03-08T01:26:46;24.30;24.70
65072;DHT22;51663;52.310;17.016;2024-03-08T01:29:48;24.30;24.80
65072;DHT22;51663;52.310;17.016;2024-03-08T01:32:51;24.50;24.60
65072;DHT22;51663;52.310;17.016;2024-03-08T01:35:53;24.60;24.30
65072;DHT22;51663;52.310;17.016;2024-03-08T01:38:56;24.60;24.30
65072;DHT22;51663;52.310;17.016;2024-03-08T01:41:59;24.50;24.50
65072;DHT22;51663;52.310;17.016;2024-03-08T01:45:05;24.30;24.50
65072;DHT22;51663;52.310;17.016;2024-03-08T01:48:08;24.40;24.60
65072;DHT22;51663;52.310;17.016;2024-03-08T01:51:11;24.10;24.80
65072;DHT22;51663;52.310;17.016;2024-03-08T01:54:15;24.20;24.90
65072;DHT22;51663;52.310;17.016;2024-03-08T01:57:19;24.50;24.60
65072;DHT22;51663;52.310;17.016;2024-03-08T02:00:21;24.70;24.50
65072;DHT22;51663;52.310;17.016;2024-03-08T02:03:24;24.80;24.10
65072;DHT22;51663;52.310;17.016;2024-03-08T02:06:27;24.60;24.40
65072;DHT22;51663;52.310;17.016;2024-03-08T02:09:29;24.50;24.40
65072;DHT22;51663;52.310;17.016;2024-03-08T02:12:31;24.20;24.60
65072;DHT22;51663;52.310;17.016;2024-03-08T02:16:03;24.20;24.80
65072;DHT22;51663;52.310;17.016;2024-03-08T02:19:06;24.10;24.80
65072;DHT22;51663;52.310;17.016;2024-03-08T02:22:14;24.30;24.70
65072;DHT22;51663;52.310;17.016;2024-03-08T02:25:16;24.50;24.60
65072;DHT22;51663;52.310;17.016;2024-03-08T02:28:20;24.80;24.30
65072;DHT22;51663;52.310;17.016;2024-03-08T02:31:22;24.70;24.30
65072;DHT22;51663;52.310;17.016;2024-03-08T02:34:24;24.80;24.20
65072;DHT22;51663;52.310;17.016;2024-03-08T02:37:27;24.80;24.10
65072;DHT22;51663;52.310;17.016;2024-03-08T02:40:30;25.00;24.00
65072;DHT22;51663;52.310;17.016;2024-03-08T02:43:32;25.10;23.90
65072;DHT22;51663;52.310;17.016;2024-03-08T02:46:35;25.10;23.70
65072;DHT22;51663;52.310;17.016;2024-03-08T02:49:38;25.10;23.60
65072;DHT22;51663;52.310;17.016;2024-03-08T02:52:40;25.10;23.70
65072;DHT22;51663;52.310;17.016;2024-03-08T02:55:44;25.00;24.00
65072;DHT22;51663;52.310;17.016;2024-03-08T02:58:46;25.00;23.90
65072;DHT22;51663;52.310;17.016;2024-03-08T03:01:50;25.10;23.80
65072;DHT22;51663;52.310;17.016;2024-03-08T03:04:53;25.00;23.60
65072;DHT22;51663;52.310;17.016;2024-03-08T03:07:56;25.00;23.60
65072;DHT22;51663;52.310;17.016;2024-03-08T03:11:00;25.10;23.60
65072;DHT22;51663;52.310;17.016;2024-03-08T03:14:02;25.10;23.50
65072;DHT22;51663;52.310;17.016;2024-03-08T03:17:04;25.00;23.20
65072;DHT22;51663;52.310;17.016;2024-03-08T03:20:08;24.80;23.80
65072;DHT22;51663;52.310;17.016;2024-03-08T03:23:15;24.60;24.10
65072;DHT22;51663;52.310;17.016;2024-03-08T03:26:24;24.70;24.20
65072;DHT22;51663;52.310;17.016;2024-03-08T03:29:26;24.80;23.90
65072;DHT22;51663;52.310;17.016;2024-03-08T03:32:28;24.90;23.60
65072;DHT22;51663;52.310;17.016;2024-03-08T03:35:30;24.90;23.50
65072;DHT22;51663;52.310;17.016;2024-03-08T03:38:33;24.90;23.40
65072;DHT22;51663;52.310;17.016;2024-03-08T03:41:36;24.80;23.60
65072;DHT22;51663;52.310;17.016;2024-03-08T03:44:39;24.80;23.60
65072;DHT22;51663;52.310;17.016;2024-03-08T03:47:42;24.40;24.40
65072;DHT22;51663;52.310;17.016;2024-03-08T03:50:45;24.60;24.20
65072;DHT22;51663;52.310;17.016;2024-03-08T03:53:47;24.70;23.70
65072;DHT22;51663;52.310;17.016;2024-03-08T03:56:50;24.50;24.10
65072;DHT22;51663;52.310;17.016;2024-03-08T03:59:55;24.30;24.30
65072;DHT22;51663;52.310;17.016;2024-03-08T04:02:57;24.40;24.90
65072;DHT22;51663;52.310;17.016;2024-03-08T04:06:05;24.50;24.10
65072;DHT22;51663;52.310;17.016;2024-03-08T04:09:08;24.20;24.40
65072;DHT22;51663;52.310;17.016;2024-03-08T04:12:10;24.00;24.80
65072;DHT22;51663;52.310;17.016;2024-03-08T04:15:13;24.40;24.40
65072;DHT22;51663;52.310;17.016;2024-03-08T04:18:15;24.50;24.30
65072;DHT22;51663;52.310;17.016;2024-03-08T04:21:18;24.60;24.00
65072;DHT22;51663;52.310;17.016;2024-03-08T04:24:21;24.70;23.70
65072;DHT22;51663;52.310;17.016;2024-03-08T04:27:24;24.80;23.50
65072;DHT22;51663;52.310;17.016;2024-03-08T04:30:26;24.80;23.40
65072;DHT22;51663;52.310;17.016;2024-03-08T04:33:30;24.90;23.50
65072;DHT22;51663;52.310;17.016;2024-03-08T04:36:33;24.90;23.40
65072;DHT22;51663;52.310;17.016;2024-03-08T04:39:36;24.90;23.50
65072;DHT22;51663;52.310;17.016;2024-03-08T04:42:39;24.90;23.30
65072;DHT22;51663;52.310;17.016;2024-03-08T04:45:44;24.90;23.40
65072;DHT22;51663;52.310;17.016;2024-03-08T04:48:47;24.90;23.30
65072;DHT22;51663;52.310;17.016;2024-03-08T04:51:49;24.80;23.20
65072;DHT22;51663;52.310;17.016;2024-03-08T04:54:51;24.70;23.00
65072;DHT22;51663;52.310;17.016;2024-03-08T04:57:53;24.40;23.70
65072;DHT22;51663;52.310;17.016;2024-03-08T05:00:55;24.20;24.00
65072;DHT22;51663;52.310;17.016;2024-03-08T05:03:58;23.90;24.30
65072;DHT22;51663;52.310;17.016;2024-03-08T05:07:06;23.80;24.60
65072;DHT22;51663;52.310;17.016;2024-03-08T05:10:09;23.80;24.70
65072;DHT22;51663;52.310;17.016;2024-03-08T05:13:12;24.10;24.00
65072;DHT22;51663;52.310;17.016;2024-03-08T05:16:15;24.40;23.60
65072;DHT22;51663;52.310;17.016;2024-03-08T05:19:18;24.50;23.40
65072;DHT22;51663;52.310;17.016;2024-03-08T05:22:21;24.60;23.20
65072;DHT22;51663;52.310;17.016;2024-03-08T05:25:23;24.70;23.20
65072;DHT22;51663;52.310;17.016;2024-03-08T05:28:26;24.80;23.20
65072;DHT22;51663;52.310;17.016;2024-03-08T05:31:29;24.80;23.10
65072;DHT22;51663;52.310;17.016;2024-03-08T05:34:34;24.80;23.10
65072;DHT22;51663;52.310;17.016;2024-03-08T05:37:36;24.80;22.90
65072;DHT22;51663;52.310;17.016;2024-03-08T05:40:38;24.90;23.00
65072;DHT22;51663;52.310;17.016;2024-03-08T05:43:41;24.90;23.00
65072;DHT22;51663;52.310;17.016;2024-03-08T05:46:44;25.00;23.00
65072;DHT22;51663;52.310;17.016;2024-03-08T05:49:46;25.00;22.90
65072;DHT22;51663;52.310;17.016;2024-03-08T05:52:49;25.00;22.90
65072;DHT22;51663;52.310;17.016;2024-03-08T05:55:51;25.10;22.90
65072;DHT22;51663;52.310;17.016;2024-03-08T05:58:54;25.10;22.90
65072;DHT22;51663;52.310;17.016;2024-03-08T06:01:56;25.10;22.90
65072;DHT22;51663;52.310;17.016;2024-03-08T06:04:58;25.20;23.10
65072;DHT22;51663;52.310;17.016;2024-03-08T06:08:00;25.20;23.00
65072;DHT22;51663;52.310;17.016;2024-03-08T06:11:04;25.20;23.20
65072;DHT22;51663;52.310;17.016;2024-03-08T06:14:07;25.30;23.20
65072;DHT22;51663;52.310;17.016;2024-03-08T06:17:10;25.30;23.30
65072;DHT22;51663;52.310;17.016;2024-03-08T06:20:13;25.40;23.40
65072;DHT22;51663;52.310;17.016;2024-03-08T06:23:16;25.40;24.00
65072;DHT22;51663;52.310;17.016;2024-03-08T06:26:21;25.50;23.60
65072;DHT22;51663;52.310;17.016;2024-03-08T06:29:24;25.70;23.70
65072;DHT22;51663;52.310;17.016;2024-03-08T06:32:26;25.60;23.90
65072;DHT22;51663;52.310;17.016;2024-03-08T06:35:28;25.70;23.80
65072;DHT22;51663;52.310;17.016;2024-03-08T06:38:34;25.80;23.80
65072;DHT22;51663;52.310;17.016;2024-03-08T06:41:36;26.00;24.00
65072;DHT22;51663;52.310;17.016;2024-03-08T06:44:39;25.90;24.00
65072;DHT22;51663;52.310;17.016;2024-03-08T06:47:51;25.90;24.00
65072;DHT22;51663;52.310;17.016;2024-03-08T06:50:54;26.00;24.00
65072;DHT22;51663;52.310;17.016;2024-03-08T06:53:56;26.00;24.10
65072;DHT22;51663;52.310;17.016;2024-03-08T06:56:58;25.80;24.10
65072;DHT22;51663;52.310;17.016;2024-03-08T07:00:03;26.00;24.10
65072;DHT22;51663;52.310;17.016;2024-03-08T07:03:08;26.20;24.10
65072;DHT22;51663;52.310;17.016;2024-03-08T07:06:14;26.10;24.10
65072;DHT22;51663;52.310;17.016;2024-03-08T07:09:17;25.90;24.30
65072;DHT22;51663;52.310;17.016;2024-03-08T07:12:19;26.10;24.20
65072;DHT22;51663;52.310;17.016;2024-03-08T07:15:22;26.10;24.30
65072;DHT22;51663;52.310;17.016;2024-03-08T07:18:25;26.00;24.40
65072;DHT22;51663;52.310;17.016;2024-03-08T07:21:28;26.40;24.40
65072;DHT22;51663;52.310;17.016;2024-03-08T07:24:31;26.20;24.30
65072;DHT22;51663;52.310;17.016;2024-03-08T07:28:08;26.30;24.10
65072;DHT22;51663;52.310;17.016;2024-03-08T07:31:15;25.90;24.40
65072;DHT22;51663;52.310;17.016;2024-03-08T07:34:17;26.20;24.40
65072;DHT22;51663;52.310;17.016;2024-03-08T07:37:20;26.20;24.50
65072;DHT22;51663;52.310;17.016;2024-03-08T07:40:22;26.20;24.30
65072;DHT22;51663;52.310;17.016;2024-03-08T07:43:25;26.30;24.20
65072;DHT22;51663;52.310;17.016;2024-03-08T07:46:27;26.40;24.40
65072;DHT22;51663;52.310;17.016;2024-03-08T07:49:33;26.40;24.20
65072;DHT22;51663;52.310;17.016;2024-03-08T07:52:36;26.60;24.40
65072;DHT22;51663;52.310;17.016;2024-03-08T07:55:39;26.60;24.40
65072;DHT22;51663;52.310;17.016;2024-03-08T07:58:44;26.30;24.30
65072;DHT22;51663;52.310;17.016;2024-03-08T08:01:47;26.40;24.30
65072;DHT22;51663;52.310;17.016;2024-03-08T08:04:49;26.50;24.40
65072;DHT22;51663;52.310;17.016;2024-03-08T08:07:52;26.60;24.20
65072;DHT22;51663;52.310;17.016;2024-03-08T08:10:55;26.60;24.40
65072;DHT22;51663;52.310;17.016;2024-03-08T08:13:58;26.50;24.30
65072;DHT22;51663;52.310;17.016;2024-03-08T08:17:01;26.50;24.10
65072;DHT22;51663;52.310;17.016;2024-03-08T08:20:07;26.60;24.30
65072;DHT22;51663;52.310;17.016;2024-03-08T08:23:09;26.70;24.30
65072;DHT22;51663;52.310;17.016;2024-03-08T08:26:14;26.80;24.00
65072;DHT22;51663;52.310;17.016;2024-03-08T08:29:16;26.30;24.10
65072;DHT22;51663;52.310;17.016;2024-03-08T08:32:19;26.60;24.00
65072;DHT22;51663;52.310;17.016;2024-03-08T08:35:22;26.30;24.10
65072;DHT22;51663;52.310;17.016;2024-03-08T08:38:24;26.10;24.50
65072;DHT22;51663;52.310;17.016;2024-03-08T08:41:27;26.40;24.10
65072;DHT22;51663;52.310;17.016;2024-03-08T08:44:31;26.30;24.00
65072;DHT22;51663;52.310;17.016;2024-03-08T08:47:35;26.20;23.90
65072;DHT22;51663;52.310;17.016;2024-03-08T08:50:37;26.20;24.10
65072;DHT22;51663;52.310;17.016;2024-03-08T08:53:42;26.40;24.10
65072;DHT22;51663;52.310;17.016;2024-03-08T08:56:49;26.10;24.00
65072;DHT22;51663;52.310;17.016;2024-03-08T08:59:51;26.40;24.20
65072;DHT22;51663;52.310;17.016;2024-03-08T09:02:53;26.20;23.80
65072;DHT22;51663;52.310;17.016;2024-03-08T09:05:57;26.30;24.00
65072;DHT22;51663;52.310;17.016;2024-03-08T09:09:00;26.40;23.90
65072;DHT22;51663;52.310;17.016;2024-03-08T09:12:07;26.40;23.70
65072;DHT22;51663;52.310;17.016;2024-03-08T09:15:09;26.30;23.90
65072;DHT22;51663;52.310;17.016;2024-03-08T09:18:14;26.30;23.90
65072;DHT22;51663;52.310;17.016;2024-03-08T09:21:17;26.40;23.90
65072;DHT22;51663;52.310;17.016;2024-03-08T09:24:20;26.20;24.10
65072;DHT22;51663;52.310;17.016;2024-03-08T09:27:23;26.30;23.80
65072;DHT22;51663;52.310;17.016;2024-03-08T09:30:25;26.20;23.40
65072;DHT22;51663;52.310;17.016;2024-03-08T09:33:28;26.00;23.50
65072;DHT22;51663;52.310;17.016;2024-03-08T09:36:31;26.10;23.60
65072;DHT22;51663;52.310;17.016;2024-03-08T09:39:35;26.30;23.60
65072;DHT22;51663;52.310;17.016;2024-03-08T09:42:37;26.60;23.40
65072;DHT22;51663;52.310;17.016;2024-03-08T09:45:40;26.50;23.20
65072;DHT22;51663;52.310;17.016;2024-03-08T09:48:44;26.60;23.30
65072;DHT22;51663;52.310;17.016;2024-03-08T09:51:50;26.80;23.10
65072;DHT22;51663;52.310;17.016;2024-03-08T09:54:54;26.40;23.70
65072;DHT22;51663;52.310;17.016;2024-03-08T09:57:58;26.60;23.20
65072;DHT22;51663;52.310;17.016;2024-03-08T10:01:20;26.40;23.40
65072;DHT22;51663;52.310;17.016;2024-03-08T10:04:24;26.50;23.20
65072;DHT22;51663;52.310;17.016;2024-03-08T10:07:26;26.60;23.10
65072;DHT22;51663;52.310;17.016;2024-03-08T10:10:29;26.50;23.20
65072;DHT22;51663;52.310;17.016;2024-03-08T10:13:31;26.80;22.80
65072;DHT22;51663;52.310;17.016;2024-03-08T10:16:35;27.20;22.50
65072;DHT22;51663;52.310;17.016;2024-03-08T10:19:37;26.90;22.20
65072;DHT22;51663;52.310;17.016;2024-03-08T10:22:42;27.00;22.40
65072;DHT22;51663;52.310;17.016;2024-03-08T10:29:13;26.90;22.60
65072;DHT22;51663;52.310;17.016;2024-03-08T10:32:17;26.90;22.20
65072;DHT22;51663;52.310;17.016;2024-03-08T10:35:20;26.40;22.70
65072;DHT22;51663;52.310;17.016;2024-03-08T10:38:23;26.40;22.90
65072;DHT22;51663;52.310;17.016;2024-03-08T10:41:30;26.70;22.70
65072;DHT22;51663;52.310;17.016;2024-03-08T10:44:53;26.90;22.70
65072;DHT22;51663;52.310;17.016;2024-03-08T10:48:20;27.20;22.20
65072;DHT22;51663;52.310;17.016;2024-03-08T10:51:30;27.40;21.90
65072;DHT22;51663;52.310;17.016;2024-03-08T10:54:34;27.20;22.00
65072;DHT22;51663;52.310;17.016;2024-03-08T10:57:37;26.70;22.20
65072;DHT22;51663;52.310;17.016;2024-03-08T11:00:41;26.10;22.70
65072;DHT22;51663;52.310;17.016;2024-03-08T11:03:44;26.40;22.70
65072;DHT22;51663;52.310;17.016;2024-03-08T11:06:47;26.50;22.40
65072;DHT22;51663;52.310;17.016;2024-03-08T11:09:50;27.00;22.10
65072;DHT22;51663;52.310;17.016;2024-03-08T11:12:52;26.60;22.20
65072;DHT22;51663;52.310;17.016;2024-03-08T11:15:54;26.40;22.80
65072;DHT22;51663;52.310;17.016;2024-03-08T11:19:23;26.70;22.50
65072;DHT22;51663;52.310;17.016;2024-03-08T11:22:31;26.70;22.50
65072;DHT22;51663;52.310;17.016;2024-03-08T11:28:43;26.70;22.70
65072;DHT22;51663;52.310;17.016;2024-03-08T11:31:46;26.20;23.40
65072;DHT22;51663;52.310;17.016;2024-03-08T11:34:50;26.10;22.80
65072;DHT22;51663;52.310;17.016;2024-03-08T11:37:52;26.70;22.80
65072;DHT22;51663;52.310;17.016;2024-03-08T11:40:57;27.30;22.20
65072;DHT22;51663;52.310;17.016;2024-03-08T11:44:05;27.30;21.90
65072;DHT22;51663;52.310;17.016;2024-03-08T11:47:09;27.60;21.70
65072;DHT22;51663;52.310;17.016;2024-03-08T11:50:13;27.60;21.40
65072;DHT22;51663;52.310;17.016;2024-03-08T11:53:16;27.30;21.80
65072;DHT22;51663;52.310;17.016;2024-03-08T11:56:18;28.00;21.70
65072;DHT22;51663;52.310;17.016;2024-03-08T11:59:25;27.70;21.80
65072;DHT22;51663;52.310;17.016;2024-03-08T12:02:28;27.70;21.50
65072;DHT22;51663;52.310;17.016;2024-03-08T12:05:32;27.40;21.60
65072;DHT22;51663;52.310;17.016;2024-03-08T12:08:36;27.50;21.10
65072;DHT22;51663;52.310;17.016;2024-03-08T12:11:39;27.70;21.00
65072;DHT22;51663;52.310;17.016;2024-03-08T12:14:43;27.60;21.40
65072;DHT22;51663;52.310;17.016;2024-03-08T12:17:48;27.10;22.10
65072;DHT22;51663;52.310;17.016;2024-03-08T12:20:51;27.30;22.00
65072;DHT22;51663;52.310;17.016;2024-03-08T12:24:07;27.40;21.90
65072;DHT22;51663;52.310;17.016;2024-03-08T12:27:20;27.10;21.80
65072;DHT22;51663;52.310;17.016;2024-03-08T12:30:24;27.40;22.30
65072;DHT22;51663;52.310;17.016;2024-03-08T12:33:29;27.00;22.10
65072;DHT22;51663;52.310;17.016;2024-03-08T12:36:32;27.20;22.00
65072;DHT22;51663;52.310;17.016;2024-03-08T12:39:35;26.70;22.50
65072;DHT22;51663;52.310;17.016;2024-03-08T12:42:37;27.10;22.30
65072;DHT22;51663;52.310;17.016;2024-03-08T12:45:41;26.80;22.30
65072;DHT22;51663;52.310;17.016;2024-03-08T12:48:44;27.00;22.80
65072;DHT22;51663;52.310;17.016;2024-03-08T12:51:49;26.70;22.40
65072;DHT22;51663;52.310;17.016;2024-03-08T12:54:52;26.80;23.00
65072;DHT22;51663;52.310;17.016;2024-03-08T12:57:54;26.90;23.00
65072;DHT22;51663;52.310;17.016;2024-03-08T13:00:57;27.70;22.40
65072;DHT22;51663;52.310;17.016;2024-03-08T13:03:59;28.00;21.80
65072;DHT22;51663;52.310;17.016;2024-03-08T13:07:04;27.70;21.90
65072;DHT22;51663;52.310;17.016;2024-03-08T13:10:07;27.80;21.90
65072;DHT22;51663;52.310;17.016;2024-03-08T13:13:11;28.10;21.90
65072;DHT22;51663;52.310;17.016;2024-03-08T13:16:19;28.20;21.80
65072;DHT22;51663;52.310;17.016;2024-03-08T13:19:21;28.30;21.80
65072;DHT22;51663;52.310;17.016;2024-03-08T13:22:24;28.50;21.80
65072;DHT22;51663;52.310;17.016;2024-03-08T13:25:27;28.50;21.60
65072;DHT22;51663;52.310;17.016;2024-03-08T13:28:30;28.10;21.30
65072;DHT22;51663;52.310;17.016;2024-03-08T13:31:34;28.50;21.40
65072;DHT22;51663;52.310;17.016;2024-03-08T13:34:42;28.30;22.00
65072;DHT22;51663;52.310;17.016;2024-03-08T13:37:48;28.20;21.30
65072;DHT22;51663;52.310;17.016;2024-03-08T13:40:50;28.40;21.00
65072;DHT22;51663;52.310;17.016;2024-03-08T13:43:54;28.50;21.50
65072;DHT22;51663;52.310;17.016;2024-03-08T13:46:58;27.90;21.80
65072;DHT22;51663;52.310;17.016;2024-03-08T13:50:00;27.90;22.00
65072;DHT22;51663;52.310;17.016;2024-03-08T13:53:03;27.90;21.50
65072;DHT22;51663;52.310;17.016;2024-03-08T13:56:06;28.20;21.50
65072;DHT22;51663;52.310;17.016;2024-03-08T13:59:09;27.80;21.70
65072;DHT22;51663;52.310;17.016;2024-03-08T14:02:11;27.50;22.00
65072;DHT22;51663;52.310;17.016;2024-03-08T14:05:16;27.60;21.80
65072;DHT22;51663;52.310;17.016;2024-03-08T14:08:20;27.80;21.90
65072;DHT22;51663;52.310;17.016;2024-03-08T14:11:22;28.20;21.80
65072;DHT22;51663;52.310;17.016;2024-03-08T14:14:26;28.00;21.90
65072;DHT22;51663;52.310;17.016;2024-03-08T14:17:28;27.90;22.30
65072;DHT22;51663;52.310;17.016;2024-03-08T14:20:35;27.50;23.10
65072;DHT22;51663;52.310;17.016;2024-03-08T14:23:41;28.00;21.90
65072;DHT22;51663;52.310;17.016;2024-03-08T14:26:45;27.80;21.80
65072;DHT22;51663;52.310;17.016;2024-03-08T14:29:51;28.00;21.80
65072;DHT22;51663;52.310;17.016;2024-03-08T14:32:54;27.60;22.20
65072;DHT22;51663;52.310;17.016;2024-03-08T14:35:57;27.20;22.40
65072;DHT22;51663;52.310;17.016;2024-03-08T14:38:59;27.40;22.50
65072;DHT22;51663;52.310;17.016;2024-03-08T14:42:02;27.50;22.40
65072;DHT22;51663;52.310;17.016;2024-03-08T14:45:06;27.10;22.80
65072;DHT22;51663;52.310;17.016;2024-03-08T14:48:09;27.40;22.70
65072;DHT22;51663;52.310;17.016;2024-03-08T14:51:13;27.50;22.70
65072;DHT22;51663;52.310;17.016;2024-03-08T14:54:16;27.60;22.40
65072;DHT22;51663;52.310;17.016;2024-03-08T14:57:19;27.70;22.50
65072;DHT22;51663;52.310;17.016;2024-03-08T15:00:21;27.80;22.20
65072;DHT22;51663;52.310;17.016;2024-03-08T15:03:36;27.40;22.60
65072;DHT22;51663;52.310;17.016;2024-03-08T15:06:41;27.70;22.30
65072;DHT22;51663;52.310;17.016;2024-03-08T15:09:44;27.80;22.20
65072;DHT22;51663;52.310;17.016;2024-03-08T15:12:47;27.60;22.40
65072;DHT22;51663;52.310;17.016;2024-03-08T15:15:53;28.10;22.20
65072;DHT22;51663;52.310;17.016;2024-03-08T15:19:00;27.40;22.30
65072;DHT22;51663;52.310;17.016;2024-03-08T15:22:02;27.30;22.40
65072;DHT22;51663;52.310;17.016;2024-03-08T15:25:05;27.70;22.20
65072;DHT22;51663;52.310;17.016;2024-03-08T15:28:07;27.40;22.20
65072;DHT22;51663;52.310;17.016;2024-03-08T15:31:17;27.00;22.30
65072;DHT22;51663;52.310;17.016;2024-03-08T15:34:21;27.00;22.50
65072;DHT22;51663;52.310;17.016;2024-03-08T15:37:26;27.10;22.20
65072;DHT22;51663;52.310;17.016;2024-03-08T15:40:30;26.80;22.20
65072;DHT22;51663;52.310;17.016;2024-03-08T15:43:33;26.60;22.60
65072;DHT22;51663;52.310;17.016;2024-03-08T15:46:37;26.60;22.30
65072;DHT22;51663;52.310;17.016;2024-03-08T15:49:39;26.50;22.90
65072;DHT22;51663;52.310;17.016;2024-03-08T15:52:46;27.20;22.40
65072;DHT22;51663;52.310;17.016;2024-03-08T15:55:49;27.50;22.30
65072;DHT22;51663;52.310;17.016;2024-03-08T15:58:51;27.90;22.10
65072;DHT22;51663;52.310;17.016;2024-03-08T16:01:55;27.90;22.00
65072;DHT22;51663;52.310;17.016;2024-03-08T16:04:57;28.00;21.80
65072;DHT22;51663;52.310;17.016;2024-03-08T16:08:01;27.70;21.70
65072;DHT22;51663;52.310;17.016;2024-03-08T16:11:03;27.90;21.80
65072;DHT22;51663;52.310;17.016;2024-03-08T16:14:08;28.20;21.80
65072;DHT22;51663;52.310;17.016;2024-03-08T16:17:13;28.50;21.90
65072;DHT22;51663;52.310;17.016;2024-03-08T16:20:15;28.40;21.80
65072;DHT22;51663;52.310;17.016;2024-03-08T16:23:19;28.10;22.20
65072;DHT22;51663;52.310;17.016;2024-03-08T16:26:21;28.40;22.20
65072;DHT22;51663;52.310;17.016;2024-03-08T16:29:26;28.20;22.30
65072;DHT22;51663;52.310;17.016;2024-03-08T16:32:28;28.20;22.30
65072;DHT22;51663;52.310;17.016;2024-03-08T16:35:31;28.20;22.40
65072;DHT22;51663;52.310;17.016;2024-03-08T16:38:34;28.10;22.40
65072;DHT22;51663;52.310;17.016;2024-03-08T16:41:38;28.20;22.50
65072;DHT22;51663;52.310;17.016;2024-03-08T16:44:43;28.10;22.50
65072;DHT22;51663;52.310;17.016;2024-03-08T16:47:46;28.20;22.50
65072;DHT22;51663;52.310;17.016;2024-03-08T16:50:49;28.00;22.60
65072;DHT22;51663;52.310;17.016;2024-03-08T16:53:51;28.20;22.70
65072;DHT22;51663;52.310;17.016;2024-03-08T16:56:56;28.20;22.50
65072;DHT22;51663;52.310;17.016;2024-03-08T16:59:58;28.40;22.50
65072;DHT22;51663;52.310;17.016;2024-03-08T17:03:01;28.50;22.40
65072;DHT22;51663;52.310;17.016;2024-03-08T17:06:04;28.50;22.50
65072;DHT22;51663;52.310;17.016;2024-03-08T17:09:08;28.40;22.80
65072;DHT22;51663;52.310;17.016;2024-03-08T17:12:13;28.40;22.60
65072;DHT22;51663;52.310;17.016;2024-03-08T17:15:22;28.30;22.70
65072;DHT22;51663;52.310;17.016;2024-03-08T17:18:24;28.10;22.70
65072;DHT22;51663;52.310;17.016;2024-03-08T17:21:28;28.30;22.90
65072;DHT22;51663;52.310;17.016;2024-03-08T17:24:31;28.10;22.80
65072;DHT22;51663;52.310;17.016;2024-03-08T17:27:33;27.90;23.00
65072;DHT22;51663;52.310;17.016;2024-03-08T17:30:38;28.20;23.00
65072;DHT22;51663;52.310;17.016;2024-03-08T17:33:43;28.20;23.00
65072;DHT22;51663;52.310;17.016;2024-03-08T17:36:48;28.30;23.00
65072;DHT22;51663;52.310;17.016;2024-03-08T17:39:52;28.30;22.70
65072;DHT22;51663;52.310;17.016;2024-03-08T17:42:59;28.30;22.80
65072;DHT22;51663;52.310;17.016;2024-03-08T17:46:03;28.30;22.70
65072;DHT22;51663;52.310;17.016;2024-03-08T17:49:06;28.20;22.90
65072;DHT22;51663;52.310;17.016;2024-03-08T17:52:09;28.20;23.00
65072;DHT22;51663;52.310;17.016;2024-03-08T17:55:14;28.10;23.20
65072;DHT22;51663;52.310;17.016;2024-03-08T17:58:16;28.10;23.00
65072;DHT22;51663;52.310;17.016;2024-03-08T18:01:19;28.10;23.50
65072;DHT22;51663;52.310;17.016;2024-03-08T18:04:23;28.10;23.00
65072;DHT22;51663;52.310;17.016;2024-03-08T18:07:26;28.10;23.00
65072;DHT22;51663;52.310;17.016;2024-03-08T18:10:33;28.00;23.10
65072;DHT22;51663;52.310;17.016;2024-03-08T18:13:36;28.10;23.20
65072;DHT22;51663;52.310;17.016;2024-03-08T18:16:39;27.90;23.00
65072;DHT22;51663;52.310;17.016;2024-03-08T18:19:42;27.80;23.00
65072;DHT22;51663;52.310;17.016;2024-03-08T18:22:44;27.80;23.20
65072;DHT22;51663;52.310;17.016;2024-03-08T18:25:49;27.50;22.90
65072;DHT22;51663;52.310;17.016;2024-03-08T18:28:52;27.60;23.20
65072;DHT22;51663;52.310;17.016;2024-03-08T18:31:55;27.60;23.30
65072;DHT22;51663;52.310;17.016;2024-03-08T18:34:59;27.70;23.20
65072;DHT22;51663;52.310;17.016;2024-03-08T18:38:02;27.60;23.30
65072;DHT22;51663;52.310;17.016;2024-03-08T18:41:05;27.50;23.30
65072;DHT22;51663;52.310;17.016;2024-03-08T18:44:08;27.50;23.40
65072;DHT22;51663;52.310;17.016;2024-03-08T18:47:18;27.50;23.40
65072;DHT22;51663;52.310;17.016;2024-03-08T18:50:21;27.30;23.40
65072;DHT22;51663;52.310;17.016;2024-03-08T18:53:31;27.40;23.40
65072;DHT22;51663;52.310;17.016;2024-03-08T18:56:36;27.40;23.30
65072;DHT22;51663;52.310;17.016;2024-03-08T18:59:44;27.40;23.30
65072;DHT22;51663;52.310;17.016;2024-03-08T19:02:51;27.40;23.30
65072;DHT22;51663;52.310;17.016;2024-03-08T19:05:58;27.40;23.30
65072;DHT22;51663;52.310;17.016;2024-03-08T19:09:01;27.40;23.30